Time;durP1;ratioP1;P1;durP2;ratioP2;P2;SDS_P1;SDS_P2;PMS_P1;PMS_P2;Temp;Humidity;BMP_temperature;BMP_pressure;BME280_temperature;BME280_humidity;BME280_pressure;Samples;Min_cycle;Max_cycle;Signal;HPM_P1;HPM_P2
2022/01/19 00:00:37;;;;;;;85.57;31.50;;;4.80;99.90;;;;;;5082806;28;20044;-71
2022/01/19 00:03:03;;;;;;;78.22;31.33;;;4.70;99.90;;;;;;5078931;28;20051;-71
2022/01/19 00:05:28;;;;;;;80.30;32.88;;;4.70;99.90;;;;;;5067850;28;20407;-71
2022/01/19 00:07:54;;;;;;;77.50;32.70;;;4.80;99.90;;;;;;5084944;28;20048;-71
2022/01/19 00:10:27;;;;;;;81.47;35.15;;;4.70;99.90;;;;;;5069805;28;20055;-71
2022/01/19 00:12:56;;;;;;;90.53;34.53;;;4.80;99.90;;;;;;5076383;28;20152;-71
2022/01/19 00:15:23;;;;;;;81.43;35.22;;;4.70;99.90;;;;;;5079268;28;20815;-71
2022/01/19 00:17:54;;;;;;;83.72;34.65;;;4.70;99.90;;;;;;5081079;28;20396;-71
2022/01/19 00:20:21;;;;;;;87.30;35.47;;;4.80;99.90;;;;;;5085084;28;20056;-71
2022/01/19 00:22:48;;;;;;;94.00;37.40;;;4.70;99.90;;;;;;5082703;28;20044;-71
2022/01/19 00:25:13;;;;;;;94.78;36.92;;;5.50;99.90;;;;;;5083622;28;20047;-71
2022/01/19 00:27:39;;;;;;;77.93;32.17;;;4.70;99.90;;;;;;5087249;28;20040;-71
2022/01/19 00:30:06;;;;;;;77.68;33.17;;;4.80;99.90;;;;;;5076835;28;20047;-71
2022/01/19 00:32:33;;;;;;;77.60;30.17;;;4.70;99.90;;;;;;5079845;28;20044;-71
2022/01/19 00:34:59;;;;;;;77.65;30.30;;;4.80;99.90;;;;;;5076217;28;20045;-71
2022/01/19 00:37:25;;;;;;;83.55;32.40;;;4.70;99.90;;;;;;5082289;28;20028;-71
2022/01/19 00:39:51;;;;;;;78.15;31.65;;;4.70;99.90;;;;;;5081292;28;20524;-71
2022/01/19 00:42:17;;;;;;;81.88;33.72;;;4.70;99.90;;;;;;5085811;28;20036;-71
2022/01/19 00:44:43;;;;;;;87.40;33.60;;;4.80;99.90;;;;;;5064800;28;20111;-71
2022/01/19 00:47:09;;;;;;;74.03;30.77;;;4.70;99.90;;;;;;5085894;28;20047;-71
2022/01/19 00:49:34;;;;;;;67.07;27.98;;;4.60;99.90;;;;;;5051365;28;20034;-71
2022/01/19 00:52:00;;;;;;;67.80;27.20;;;4.70;99.90;;;;;;5075983;28;20028;-71
2022/01/19 00:54:26;;;;;;;70.53;27.83;;;4.70;99.90;;;;;;5063028;28;20102;-71
2022/01/19 00:56:52;;;;;;;58.60;25.73;;;4.70;99.90;;;;;;5081287;28;20157;-71
2022/01/19 00:59:17;;;;;;;54.08;22.50;;;5.00;99.90;;;;;;5080550;28;20047;-71
2022/01/19 01:01:43;;;;;;;52.95;22.13;;;4.70;99.90;;;;;;5068759;28;20044;-71
2022/01/19 01:04:09;;;;;;;61.88;25.65;;;4.70;99.90;;;;;;5082301;28;20043;-71
2022/01/19 01:06:34;;;;;;;61.75;24.92;;;4.80;99.90;;;;;;5074972;28;20047;-71
2022/01/19 01:09:00;;;;;;;61.17;25.70;;;4.80;99.90;;;;;;5087673;28;20138;-71
2022/01/19 01:11:33;;;;;;;58.38;24.88;;;4.80;99.90;;;;;;5090473;28;20036;-71
2022/01/19 01:17:12;;;;;;;54.15;22.23;;;4.70;99.90;;;;;;5066271;28;20119;-71
2022/01/19 01:19:15;;;;;;;57.72;24.25;;;4.70;99.90;;;;;;5080289;28;20095;-73
2022/01/19 01:21:40;;;;;;;62.65;24.52;;;4.70;99.90;;;;;;5088934;28;20082;-71
2022/01/19 01:24:06;;;;;;;46.60;20.58;;;4.70;99.90;;;;;;5087031;28;20554;-71
2022/01/19 01:26:32;;;;;;;56.45;21.35;;;4.70;99.90;;;;;;5071116;28;20583;-71
2022/01/19 01:28:58;;;;;;;57.17;22.25;;;4.70;99.90;;;;;;5084869;28;20379;-71
2022/01/19 01:31:23;;;;;;;55.25;23.40;;;4.70;99.90;;;;;;5088046;28;20395;-71
2022/01/19 01:33:49;;;;;;;49.00;21.83;;;4.70;99.90;;;;;;5074781;28;20039;-71
2022/01/19 01:36:15;;;;;;;53.47;21.80;;;4.60;99.90;;;;;;5087264;28;20371;-71
2022/01/19 01:38:41;;;;;;;53.92;21.70;;;4.60;99.90;;;;;;5079411;28;20036;-71
2022/01/19 01:41:12;;;;;;;54.15;21.90;;;4.60;99.90;;;;;;5088736;28;20039;-71
2022/01/19 01:43:38;;;;;;;54.45;20.38;;;4.70;99.90;;;;;;5069853;28;20048;-71
2022/01/19 01:46:11;;;;;;;51.10;19.75;;;4.60;99.90;;;;;;5090654;28;20028;-71
2022/01/19 01:48:42;;;;;;;47.35;20.27;;;4.60;99.90;;;;;;5086798;28;20099;-71
2022/01/19 01:53:54;;;;;;;50.70;21.88;;;4.60;99.90;;;;;;5084455;28;20156;-71
2022/01/19 01:56:20;;;;;;;48.50;20.80;;;4.60;99.90;;;;;;5092500;28;20118;-71
2022/01/19 01:58:48;;;;;;;57.92;23.15;;;4.60;99.90;;;;;;5082939;28;20134;-71
2022/01/19 02:01:14;;;;;;;52.03;22.90;;;4.50;99.90;;;;;;5086787;28;20035;-71
2022/01/19 02:03:42;;;;;;;56.60;22.98;;;4.60;99.90;;;;;;5050553;28;20043;-71
2022/01/19 02:08:47;;;;;;;62.97;24.00;;;4.60;99.90;;;;;;5085618;28;20752;-71
2022/01/19 02:16:34;;;;;;;58.03;23.10;;;4.60;99.90;;;;;;5085872;28;20043;-71
2022/01/19 02:21:59;;;;;;;52.00;23.20;;;4.60;99.90;;;;;;5077543;28;20057;-71
2022/01/19 02:24:29;;;;;;;53.88;22.73;;;4.60;99.90;;;;;;5064664;28;20578;-71
2022/01/19 02:28:57;;;;;;;51.72;22.10;;;4.60;99.90;;;;;;5063502;28;20047;-70
2022/01/19 02:40:57;;;;;;;57.78;25.23;;;4.50;99.90;;;;;;5075869;28;20147;-70
2022/01/19 02:43:26;;;;;;;59.60;24.67;;;4.40;99.90;;;;;;5088171;28;20040;-70
2022/01/19 02:51:20;;;;;;;59.67;22.58;;;4.30;99.90;;;;;;5086432;28;20047;-70
2022/01/19 02:53:46;;;;;;;64.18;25.67;;;4.30;99.90;;;;;;5089734;28;20043;-70
2022/01/19 02:56:21;;;;;;;67.38;27.23;;;4.30;99.90;;;;;;5066755;28;20649;-70
2022/01/19 02:58:52;;;;;;;68.93;28.15;;;4.50;99.90;;;;;;5064661;28;20059;-70
2022/01/19 03:09:27;;;;;;;49.22;21.63;;;4.30;99.90;;;;;;5085960;28;20039;-71
2022/01/19 03:11:54;;;;;;;53.13;22.02;;;4.20;99.90;;;;;;5085988;28;20042;-71
2022/01/19 03:14:20;;;;;;;61.55;25.70;;;4.20;99.90;;;;;;5084402;28;20039;-71
2022/01/19 03:16:46;;;;;;;56.92;24.55;;;4.20;99.90;;;;;;5079555;28;20051;-71
2022/01/19 03:19:12;;;;;;;53.53;22.08;;;4.20;99.90;;;;;;5082999;28;20047;-71
2022/01/19 03:21:40;;;;;;;62.47;26.77;;;4.20;99.90;;;;;;5056326;28;20044;-71
2022/01/19 03:24:06;;;;;;;65.65;26.77;;;4.10;99.90;;;;;;5085493;28;20036;-71
2022/01/19 03:26:32;;;;;;;70.80;27.88;;;4.20;99.90;;;;;;5071642;28;20523;-71
2022/01/19 03:28:58;;;;;;;62.97;26.20;;;4.10;99.90;;;;;;5082904;28;20051;-71
2022/01/19 03:31:23;;;;;;;57.47;25.77;;;4.20;99.90;;;;;;5066820;28;20115;-71
2022/01/19 03:33:49;;;;;;;70.95;26.83;;;4.20;99.90;;;;;;5068865;28;20031;-71
2022/01/19 03:36:17;;;;;;;64.25;25.77;;;4.20;99.90;;;;;;5080004;28;20108;-71
2022/01/19 03:38:43;;;;;;;63.72;27.02;;;4.10;99.90;;;;;;5081749;28;20048;-71
2022/01/19 03:41:09;;;;;;;67.00;29.25;;;4.10;99.90;;;;;;5069476;28;20042;-70
2022/01/19 03:43:35;;;;;;;70.70;30.67;;;4.10;99.90;;;;;;5066033;28;20032;-70
2022/01/19 03:46:02;;;;;;;50.78;23.23;;;4.00;99.90;;;;;;5069075;28;20391;-70
2022/01/19 03:51:01;;;;;;;60.95;27.70;;;4.10;99.90;;;;;;5077177;28;20539;-70
2022/01/19 03:53:27;;;;;;;58.08;25.92;;;3.80;99.90;;;;;;5085664;28;20046;-70
2022/01/19 03:55:52;;;;;;;73.55;30.83;;;4.10;99.90;;;;;;5085395;28;20466;-70
2022/01/19 03:58:18;;;;;;;69.90;32.30;;;3.80;99.90;;;;;;5069756;28;20032;-70
2022/01/19 04:00:45;;;;;;;71.45;29.65;;;4.00;99.90;;;;;;5081158;28;20043;-70
2022/01/19 04:03:14;;;;;;;74.82;31.08;;;4.70;99.90;;;;;;5079660;28;20143;-70
2022/01/19 04:05:55;;;;;;;66.07;28.95;;;4.00;99.90;;;;;;5068276;28;20039;-70
2022/01/19 04:08:22;;;;;;;65.10;28.65;;;4.10;99.90;;;;;;5069133;28;20056;-70
2022/01/19 04:10:47;;;;;;;67.18;27.35;;;4.90;99.90;;;;;;5082938;28;20083;-70
2022/01/19 04:13:44;;;;;;;57.47;25.95;;;4.50;99.90;;;;;;5067441;28;20436;-70
2022/01/19 04:16:09;;;;;;;60.03;26.15;;;4.10;99.90;;;;;;5079602;28;20036;-70
2022/01/19 04:18:35;;;;;;;64.70;28.02;;;3.70;99.90;;;;;;5075878;28;20055;-70
2022/01/19 04:21:02;;;;;;;68.30;28.85;;;4.00;99.90;;;;;;5081764;28;20105;-70
2022/01/19 04:23:28;;;;;;;66.25;29.63;;;4.00;99.90;;;;;;5081133;28;20446;-71
2022/01/19 04:25:54;;;;;;;69.82;28.05;;;3.90;99.90;;;;;;5080672;28;20109;-70
2022/01/19 04:28:20;;;;;;;69.43;31.17;;;3.70;99.90;;;;;;5075837;28;20064;-70
2022/01/19 04:30:46;;;;;;;69.63;29.30;;;4.00;99.90;;;;;;5083773;28;20075;-71
2022/01/19 04:33:23;;;;;;;69.78;31.67;;;4.00;99.90;;;;;;5064366;28;20036;-71
2022/01/19 04:35:54;;;;;;;67.50;31.17;;;3.80;99.90;;;;;;5084765;28;20043;-71
2022/01/19 04:54:53;;;;;;;65.90;29.48;;;3.90;99.90;;;;;;5081384;28;20063;-70
2022/01/19 05:06:02;;;;;;;74.20;31.88;;;3.90;99.90;;;;;;5068593;28;20044;-71
2022/01/19 05:13:56;;;;;;;73.13;31.10;;;3.90;99.90;;;;;;5079274;28;20046;-70
2022/01/19 05:16:23;;;;;;;70.20;31.95;;;3.80;99.90;;;;;;5085476;28;20033;-70
2022/01/19 05:18:49;;;;;;;77.30;33.45;;;3.90;99.90;;;;;;5073379;28;20044;-70
2022/01/19 05:21:16;;;;;;;69.10;32.05;;;4.60;99.90;;;;;;5084629;28;20118;-70
2022/01/19 05:23:42;;;;;;;70.25;31.23;;;3.90;99.90;;;;;;5079091;28;20097;-70
2022/01/19 05:26:08;;;;;;;74.60;33.70;;;3.80;99.90;;;;;;5086869;28;20616;-70
2022/01/19 05:28:33;;;;;;;60.90;29.70;;;4.00;99.90;;;;;;5068191;28;20115;-70
2022/01/19 05:30:59;;;;;;;71.97;31.17;;;3.90;99.90;;;;;;5074591;28;20163;-70
2022/01/19 05:33:25;;;;;;;70.15;31.90;;;3.90;99.90;;;;;;5076785;28;20528;-70
2022/01/19 05:35:51;;;;;;;72.68;33.95;;;3.90;99.90;;;;;;5061916;28;20824;-70
2022/01/19 05:38:16;;;;;;;68.53;31.98;;;3.90;99.90;;;;;;5087934;28;20079;-70
2022/01/19 05:40:42;;;;;;;70.50;32.55;;;4.50;99.90;;;;;;5086507;28;20040;-70
2022/01/19 05:43:08;;;;;;;84.53;33.40;;;3.90;99.90;;;;;;5083512;28;20040;-70
2022/01/19 05:45:33;;;;;;;72.07;34.20;;;3.90;99.90;;;;;;5064431;28;20495;-70
2022/01/19 05:48:00;;;;;;;74.15;33.28;;;3.90;99.90;;;;;;5065261;28;20440;-70
2022/01/19 05:50:26;;;;;;;79.80;34.55;;;3.90;99.90;;;;;;5078486;28;20040;-70
2022/01/19 05:52:52;;;;;;;73.03;32.53;;;4.00;99.90;;;;;;5077632;28;20047;-70
2022/01/19 05:55:17;;;;;;;76.47;35.47;;;3.90;99.90;;;;;;5073823;28;20063;-70
2022/01/19 05:57:43;;;;;;;67.97;32.72;;;3.90;99.90;;;;;;5076478;28;20048;-70
2022/01/19 06:00:10;;;;;;;63.65;32.08;;;3.90;99.90;;;;;;5079686;28;20039;-70
2022/01/19 06:02:36;;;;;;;63.42;32.20;;;4.00;99.90;;;;;;5086493;28;20385;-71
2022/01/19 06:05:03;;;;;;;59.33;31.38;;;4.50;99.90;;;;;;5085488;28;20089;-71
2022/01/19 06:07:30;;;;;;;67.95;33.13;;;3.90;99.90;;;;;;5061105;28;20119;-71
2022/01/19 06:10:07;;;;;;;66.20;31.48;;;4.00;99.90;;;;;;5074676;28;20051;-70
2022/01/19 06:12:33;;;;;;;62.35;31.35;;;4.00;99.90;;;;;;5080136;28;20118;-70
2022/01/19 06:15:00;;;;;;;66.93;31.75;;;4.00;99.90;;;;;;5069032;28;20036;-70
2022/01/19 06:17:26;;;;;;;65.30;29.27;;;4.00;99.90;;;;;;5062274;28;20097;-70
2022/01/19 06:19:52;;;;;;;62.22;31.60;;;4.00;99.90;;;;;;5074620;28;20770;-70
2022/01/19 06:22:18;;;;;;;61.80;32.00;;;4.00;99.90;;;;;;5066813;28;20123;-70
2022/01/19 06:24:45;;;;;;;64.40;32.42;;;4.00;99.90;;;;;;5050065;28;20036;-70
2022/01/19 06:27:11;;;;;;;62.80;31.73;;;4.00;99.90;;;;;;5071345;28;20040;-71
2022/01/19 06:29:37;;;;;;;67.40;34.28;;;4.00;99.90;;;;;;5065397;28;20040;-70
2022/01/19 06:32:03;;;;;;;67.82;33.17;;;3.90;99.90;;;;;;5072794;28;20408;-70
2022/01/19 06:34:29;;;;;;;64.40;31.35;;;4.00;99.90;;;;;;5063796;28;20032;-70
2022/01/19 06:36:54;;;;;;;64.78;33.63;;;3.90;99.90;;;;;;5062489;28;20043;-70
2022/01/19 06:39:21;;;;;;;67.03;32.03;;;3.90;99.90;;;;;;5081814;28;20126;-70
2022/01/19 06:41:48;;;;;;;61.40;31.67;;;4.00;99.90;;;;;;5083437;28;20075;-70
2022/01/19 06:44:14;;;;;;;65.10;30.88;;;4.00;99.90;;;;;;5084142;28;20079;-70
2022/01/19 06:46:41;;;;;;;60.15;31.50;;;3.90;99.90;;;;;;5079707;28;20488;-70
2022/01/19 06:49:07;;;;;;;61.08;31.52;;;4.00;99.90;;;;;;5084336;28;20068;-70
2022/01/19 06:51:34;;;;;;;61.10;31.42;;;4.30;99.90;;;;;;5084620;28;20094;-70
2022/01/19 06:54:00;;;;;;;62.15;31.00;;;4.00;99.90;;;;;;5087202;28;20097;-70
2022/01/19 06:56:25;;;;;;;66.90;31.33;;;4.00;99.90;;;;;;5051030;28;20038;-70
2022/01/19 06:58:51;;;;;;;63.15;30.33;;;4.00;99.90;;;;;;5087015;28;20094;-70
2022/01/19 07:01:17;;;;;;;68.07;33.55;;;4.00;99.90;;;;;;5069433;28;20088;-70
2022/01/19 07:03:42;;;;;;;58.08;28.63;;;4.00;99.90;;;;;;5069391;28;20052;-70
2022/01/19 07:06:11;;;;;;;60.58;26.90;;;4.00;99.90;;;;;;5063597;28;20162;-70
2022/01/19 07:08:41;;;;;;;57.20;30.35;;;4.00;99.90;;;;;;5066574;28;20048;-71
2022/01/19 07:11:07;;;;;;;53.67;29.02;;;4.00;99.90;;;;;;5082873;28;20112;-70
2022/01/19 07:13:33;;;;;;;63.75;32.55;;;4.00;99.90;;;;;;5063843;28;20559;-69
2022/01/19 07:15:59;;;;;;;55.65;28.98;;;4.00;99.90;;;;;;5072700;28;20043;-70
2022/01/19 07:18:25;;;;;;;54.55;28.83;;;4.00;99.90;;;;;;5081029;28;20101;-70
2022/01/19 07:20:50;;;;;;;59.85;28.52;;;4.00;99.90;;;;;;5065105;28;20033;-70
2022/01/19 07:23:16;;;;;;;58.58;29.10;;;4.00;99.90;;;;;;5077877;28;20440;-70
2022/01/19 07:25:42;;;;;;;63.85;30.77;;;4.50;99.90;;;;;;5059464;28;20067;-70
2022/01/19 07:28:11;;;;;;;63.42;30.73;;;4.10;99.90;;;;;;5066569;28;20107;-70
2022/01/19 07:30:37;;;;;;;58.50;27.27;;;4.10;99.90;;;;;;5066173;28;20040;-70
2022/01/19 07:33:04;;;;;;;60.95;31.40;;;4.00;99.90;;;;;;5079247;28;20086;-71
2022/01/19 07:35:29;;;;;;;58.50;29.83;;;4.10;99.90;;;;;;5061985;28;20028;-71
2022/01/19 07:37:55;;;;;;;55.53;29.42;;;4.00;99.90;;;;;;5075981;28;20546;-71
2022/01/19 07:40:22;;;;;;;58.10;27.50;;;4.00;99.90;;;;;;5078052;28;20036;-71
2022/01/19 07:42:48;;;;;;;52.35;26.40;;;4.00;99.90;;;;;;5061203;28;20056;-70
2022/01/19 07:45:14;;;;;;;52.80;25.90;;;4.00;99.90;;;;;;5074177;28;20445;-71
2022/01/19 07:47:40;;;;;;;49.33;26.20;;;4.10;99.90;;;;;;5072090;28;20124;-71
2022/01/19 07:50:07;;;;;;;52.47;27.20;;;3.90;99.90;;;;;;5077230;28;20040;-71
2022/01/19 07:52:32;;;;;;;57.53;25.40;;;4.00;99.90;;;;;;5066329;28;20048;-71
2022/01/19 07:54:58;;;;;;;51.00;27.67;;;4.20;99.90;;;;;;5068433;28;20381;-72
2022/01/19 07:57:24;;;;;;;56.90;27.83;;;3.90;99.90;;;;;;5062688;28;20044;-71
2022/01/19 07:59:49;;;;;;;53.53;27.75;;;3.90;99.90;;;;;;5069359;28;20097;-70
2022/01/19 08:02:16;;;;;;;59.67;27.75;;;3.90;99.90;;;;;;5057131;28;20041;-71
2022/01/19 08:04:43;;;;;;;51.22;25.33;;;3.90;99.90;;;;;;5065883;28;20040;-71
2022/01/19 08:07:08;;;;;;;59.13;29.58;;;3.90;99.90;;;;;;5069522;28;20055;-71
2022/01/19 08:09:35;;;;;;;55.88;29.50;;;3.90;99.90;;;;;;5084165;28;20047;-71
2022/01/19 08:12:01;;;;;;;52.95;25.60;;;3.90;99.90;;;;;;5092249;28;20071;-71
2022/01/19 08:14:28;;;;;;;56.58;28.63;;;3.90;99.90;;;;;;5075778;28;20487;-71
2022/01/19 08:16:57;;;;;;;56.58;30.45;;;4.30;99.90;;;;;;5085733;28;20047;-71
2022/01/19 08:19:23;;;;;;;50.75;28.45;;;3.80;99.90;;;;;;5088680;28;20047;-71
2022/01/19 08:21:49;;;;;;;56.10;28.52;;;3.80;99.90;;;;;;5089304;28;20040;-71
2022/01/19 08:24:15;;;;;;;52.35;29.17;;;3.80;99.90;;;;;;5075623;28;20048;-71
2022/01/19 08:26:42;;;;;;;51.08;28.25;;;3.80;99.90;;;;;;5109211;28;20031;-71
2022/01/19 08:29:09;;;;;;;51.00;24.05;;;3.80;99.90;;;;;;5089748;28;20415;-71
2022/01/19 08:31:35;;;;;;;56.55;29.45;;;3.80;99.90;;;;;;5092429;28;20048;-71
2022/01/19 08:34:01;;;;;;;45.55;26.05;;;3.80;99.90;;;;;;5091069;28;20122;-71
2022/01/19 08:36:27;;;;;;;48.25;26.63;;;3.80;99.90;;;;;;5090343;28;20128;-71
2022/01/19 08:38:54;;;;;;;45.42;25.48;;;3.70;99.90;;;;;;5073106;28;20047;-71
2022/01/19 08:41:20;;;;;;;49.53;26.48;;;3.80;99.90;;;;;;5089501;28;20034;-71
2022/01/19 08:43:46;;;;;;;44.92;23.38;;;3.80;99.90;;;;;;5087527;28;20484;-71
2022/01/19 08:46:12;;;;;;;44.08;23.85;;;3.80;99.90;;;;;;5080695;28;20127;-71
2022/01/19 08:48:37;;;;;;;42.40;24.23;;;3.50;99.90;;;;;;5053180;28;20377;-70
2022/01/19 08:51:04;;;;;;;48.78;27.15;;;3.70;99.90;;;;;;5071062;28;20122;-71
2022/01/19 08:53:31;;;;;;;48.55;26.70;;;4.10;99.90;;;;;;5090259;28;20293;-71
2022/01/19 08:55:57;;;;;;;45.08;26.02;;;3.70;99.90;;;;;;5089615;28;20105;-71
2022/01/19 08:58:22;;;;;;;42.78;25.38;;;3.70;99.90;;;;;;5072938;28;20039;-71
2022/01/19 09:00:48;;;;;;;47.75;25.77;;;3.80;99.90;;;;;;5065531;28;20040;-71
2022/01/19 09:03:18;;;;;;;44.55;25.67;;;3.80;99.90;;;;;;5072348;28;20039;-71
2022/01/19 09:05:44;;;;;;;47.60;26.30;;;4.40;99.90;;;;;;5085424;28;20414;-71
2022/01/19 09:08:10;;;;;;;48.83;26.15;;;3.80;99.90;;;;;;5089632;28;20056;-71
2022/01/19 09:10:39;;;;;;;50.40;27.23;;;4.10;99.90;;;;;;5072922;28;20091;-70
2022/01/19 09:13:06;;;;;;;51.22;27.30;;;3.90;99.90;;;;;;5071775;28;20071;-70
2022/01/19 09:15:32;;;;;;;47.67;25.30;;;3.90;99.90;;;;;;5094368;28;20472;-70
2022/01/19 09:17:57;;;;;;;49.60;27.15;;;4.00;99.90;;;;;;5076071;28;20071;-70
2022/01/19 09:20:23;;;;;;;44.17;26.05;;;4.40;99.90;;;;;;5089647;28;20067;-70
2022/01/19 09:22:49;;;;;;;51.05;28.10;;;4.00;99.90;;;;;;5076451;28;20043;-70
2022/01/19 09:25:15;;;;;;;52.17;28.25;;;4.00;99.90;;;;;;5073567;28;20432;-70
2022/01/19 09:27:41;;;;;;;52.10;27.17;;;4.10;99.90;;;;;;5094141;28;20047;-70
2022/01/19 09:30:13;;;;;;;48.17;25.92;;;3.90;99.90;;;;;;5085704;28;20040;-71
2022/01/19 09:32:39;;;;;;;47.03;25.40;;;4.10;99.90;;;;;;5088560;28;20164;-71
2022/01/19 09:35:10;;;;;;;55.75;27.83;;;4.20;99.90;;;;;;5080141;28;20052;-70
2022/01/19 09:37:37;;;;;;;42.77;25.03;;;4.20;99.90;;;;;;5078352;28;20119;-70
2022/01/19 09:40:07;;;;;;;43.85;26.05;;;4.20;99.90;;;;;;5085236;28;20540;-70
2022/01/19 09:42:34;;;;;;;49.38;25.58;;;4.20;99.90;;;;;;5085278;28;20123;-70
2022/01/19 09:45:00;;;;;;;43.13;25.05;;;4.20;99.90;;;;;;5083998;28;20475;-70
2022/01/19 09:47:26;;;;;;;47.85;26.80;;;4.20;99.90;;;;;;5070424;28;20046;-70
2022/01/19 09:49:51;;;;;;;46.33;24.75;;;4.50;99.90;;;;;;5070141;28;20471;-70
2022/01/19 09:52:17;;;;;;;39.13;22.38;;;4.40;99.90;;;;;;5068152;28;20031;-70
2022/01/19 09:54:43;;;;;;;50.30;27.75;;;4.80;99.90;;;;;;5070347;28;20516;-70
2022/01/19 09:57:08;;;;;;;54.72;30.08;;;4.20;99.90;;;;;;5087723;28;20035;-70
2022/01/19 09:59:35;;;;;;;48.88;27.98;;;4.20;99.90;;;;;;5085428;28;20122;-71
2022/01/19 10:02:09;;;;;;;51.97;29.10;;;4.20;99.90;;;;;;5088576;28;20035;-71
2022/01/19 10:04:42;;;;;;;46.92;28.25;;;4.30;99.90;;;;;;5089535;28;20040;-71
2022/01/19 10:07:14;;;;;;;48.95;27.38;;;4.20;99.90;;;;;;5088942;28;20044;-71
2022/01/19 10:09:56;;;;;;;51.42;28.27;;;4.40;99.90;;;;;;5067572;28;20047;-71
2022/01/19 10:18:29;;;;;;;48.47;29.00;;;4.30;99.90;;;;;;5082127;28;20528;-71
2022/01/19 10:21:09;;;;;;;50.05;28.52;;;4.30;99.90;;;;;;5088519;28;20519;-71
2022/01/19 10:23:44;;;;;;;45.55;26.85;;;4.30;99.90;;;;;;5079864;28;20058;-71
2022/01/19 10:26:13;;;;;;;50.80;29.77;;;4.70;99.90;;;;;;5088315;28;20513;-71
2022/01/19 10:29:00;;;;;;;52.05;29.25;;;4.40;99.90;;;;;;5069685;28;20130;-71
2022/01/19 10:31:27;;;;;;;46.70;26.23;;;4.50;99.90;;;;;;5088027;28;20395;-71
2022/01/19 10:34:28;;;;;;;47.65;27.30;;;5.20;99.90;;;;;;5087595;28;20054;-71
2022/01/19 10:36:56;;;;;;;40.58;24.45;;;5.20;99.90;;;;;;5043030;28;20102;-71
2022/01/19 10:39:24;;;;;;;48.60;28.40;;;4.50;99.90;;;;;;5081835;28;20058;-71
2022/01/19 10:41:59;;;;;;;48.38;30.27;;;4.50;99.90;;;;;;5090162;28;20035;-71
2022/01/19 10:44:37;;;;;;;51.20;29.58;;;4.60;99.90;;;;;;5070793;28;20035;-70
2022/01/19 10:47:04;;;;;;;49.42;27.05;;;4.60;99.90;;;;;;5082565;28;20457;-70
2022/01/19 10:49:50;;;;;;;50.47;28.58;;;4.70;99.90;;;;;;5084192;28;20054;-70
2022/01/19 10:52:27;;;;;;;52.97;31.13;;;4.60;99.90;;;;;;5087547;28;20028;-70
2022/01/19 10:54:53;;;;;;;50.60;30.42;;;4.70;99.90;;;;;;5088091;28;20028;-70
2022/01/19 10:57:20;;;;;;;52.63;31.08;;;4.70;99.90;;;;;;5056339;28;20038;-71
2022/01/19 10:59:45;;;;;;;55.42;31.48;;;4.70;99.90;;;;;;5061912;28;20044;-70
2022/01/19 11:02:12;;;;;;;52.80;30.17;;;5.00;99.90;;;;;;5082818;28;20111;-70
2022/01/19 11:04:39;;;;;;;55.30;31.50;;;4.80;99.90;;;;;;5067822;28;20101;-71
2022/01/19 11:07:15;;;;;;;52.45;31.63;;;4.70;99.90;;;;;;5085588;28;20050;-71
2022/01/19 11:09:56;;;;;;;55.90;30.58;;;4.80;99.90;;;;;;5067729;28;20113;-70
2022/01/19 11:12:24;;;;;;;57.15;32.05;;;4.80;99.90;;;;;;5080614;28;20063;-71
2022/01/19 11:14:49;;;;;;;54.05;32.42;;;4.80;99.90;;;;;;5086535;28;20036;-70
2022/01/19 11:17:15;;;;;;;54.80;32.10;;;4.80;99.90;;;;;;5083889;28;20276;-70
2022/01/19 11:19:45;;;;;;;55.10;31.40;;;4.80;99.90;;;;;;5070467;28;20488;-70
2022/01/19 11:22:36;;;;;;;60.60;31.65;;;4.80;99.90;;;;;;5089557;28;20047;-70
2022/01/19 11:25:07;;;;;;;54.17;31.52;;;4.80;99.90;;;;;;5068831;28;20047;-71
2022/01/19 11:27:45;;;;;;;61.08;33.10;;;4.80;99.90;;;;;;5088053;28;20419;-70
2022/01/19 11:30:23;;;;;;;63.85;36.33;;;5.00;99.90;;;;;;5068935;28;20453;-70
2022/01/19 11:33:17;;;;;;;59.83;33.40;;;4.70;99.90;;;;;;5082337;28;20046;-70
2022/01/19 11:35:46;;;;;;;63.58;35.70;;;4.70;99.90;;;;;;5078749;28;20066;-70
2022/01/19 11:38:36;;;;;;;64.05;34.95;;;4.60;99.90;;;;;;5063653;28;20035;-70
2022/01/19 11:41:25;;;;;;;59.53;33.50;;;4.70;99.90;;;;;;5068971;28;20031;-71
2022/01/19 11:43:54;;;;;;;58.90;33.55;;;4.80;99.90;;;;;;5084199;28;20437;-70
2022/01/19 11:46:27;;;;;;;61.60;37.08;;;4.60;99.90;;;;;;5083062;28;20063;-71
2022/01/19 11:48:53;;;;;;;64.95;34.92;;;4.80;99.90;;;;;;5073000;28;20126;-71
2022/01/19 11:51:34;;;;;;;60.38;30.40;;;4.70;99.90;;;;;;5087422;28;20452;-70
2022/01/19 11:54:03;;;;;;;63.13;33.85;;;4.70;99.90;;;;;;5087372;28;20131;-70
2022/01/19 11:56:30;;;;;;;65.38;35.30;;;4.70;99.90;;;;;;5066768;28;21129;-70
2022/01/19 11:59:08;;;;;;;73.43;36.22;;;4.60;99.90;;;;;;5067340;28;20032;-70
2022/01/19 12:01:35;;;;;;;63.65;32.92;;;4.70;99.90;;;;;;5079224;28;20030;-70
2022/01/19 12:04:19;;;;;;;69.13;34.63;;;4.70;99.90;;;;;;5085493;28;20111;-71
2022/01/19 12:06:47;;;;;;;67.72;33.20;;;4.70;99.90;;;;;;5059092;28;20028;-70
2022/01/19 12:09:14;;;;;;;68.75;34.88;;;4.80;99.90;;;;;;5071429;28;20108;-70
2022/01/19 12:11:46;;;;;;;74.45;41.33;;;4.70;99.90;;;;;;5070011;28;20369;-70
2022/01/19 12:19:13;;;;;;;67.25;35.90;;;4.70;99.90;;;;;;5084129;28;20043;-70
2022/01/19 12:21:55;;;;;;;78.22;43.38;;;4.90;99.90;;;;;;5083868;28;20100;-70
2022/01/19 12:24:30;;;;;;;76.60;38.78;;;4.90;99.90;;;;;;5085884;28;20036;-70
2022/01/19 12:27:14;;;;;;;82.15;41.58;;;4.90;99.90;;;;;;5099086;28;20411;-70
2022/01/19 12:29:46;;;;;;;73.20;37.60;;;4.90;99.90;;;;;;5077849;28;20047;-70
2022/01/19 12:32:19;;;;;;;82.03;39.80;;;5.00;99.90;;;;;;5087644;28;20039;-70
2022/01/19 12:34:54;;;;;;;69.22;37.75;;;5.00;99.90;;;;;;5089054;28;20043;-70
2022/01/19 12:37:32;;;;;;;74.65;38.47;;;5.00;99.90;;;;;;5069286;28;20062;-70
2022/01/19 12:39:59;;;;;;;71.07;38.30;;;5.10;99.90;;;;;;5081655;28;20075;-70
2022/01/19 12:42:39;;;;;;;74.20;40.80;;;5.00;99.90;;;;;;5086766;28;20175;-70
2022/01/19 12:45:19;;;;;;;82.43;42.42;;;4.90;99.90;;;;;;5066016;28;20113;-70
2022/01/19 12:47:50;;;;;;;71.38;39.13;;;4.90;99.90;;;;;;5080667;28;20483;-70
2022/01/19 12:50:16;;;;;;;79.88;41.28;;;4.90;99.90;;;;;;5075525;28;20078;-70
2022/01/19 12:52:43;;;;;;;73.55;36.88;;;4.90;99.90;;;;;;5087243;28;20040;-70
2022/01/19 12:55:22;;;;;;;80.18;40.15;;;4.90;99.90;;;;;;5052160;28;20032;-70
2022/01/19 12:57:49;;;;;;;73.95;36.47;;;4.80;99.90;;;;;;5071454;28;20391;-70
2022/01/19 13:00:18;;;;;;;81.93;42.20;;;4.70;99.90;;;;;;5073801;28;20047;-70
2022/01/19 13:02:44;;;;;;;77.43;36.75;;;4.90;99.90;;;;;;5087673;28;20043;-70
2022/01/19 13:05:14;;;;;;;77.43;41.17;;;4.90;99.90;;;;;;5073432;28;20100;-70
2022/01/19 13:07:52;;;;;;;75.30;40.78;;;4.90;99.90;;;;;;5080265;28;20064;-70
2022/01/19 13:10:45;;;;;;;82.05;42.25;;;4.90;99.90;;;;;;5088901;28;20047;-70
2022/01/19 13:13:13;;;;;;;77.47;43.88;;;5.00;99.90;;;;;;5083874;28;20039;-70
2022/01/19 13:16:06;;;;;;;82.65;42.00;;;4.80;99.90;;;;;;5088746;28;20118;-70
2022/01/19 13:18:35;;;;;;;71.72;36.20;;;5.00;99.90;;;;;;5062576;28;20071;-70
2022/01/19 13:21:10;;;;;;;71.47;35.03;;;5.00;99.90;;;;;;5083178;28;20070;-70
2022/01/19 13:23:51;;;;;;;75.93;39.75;;;5.00;99.90;;;;;;5085037;28;20062;-70
2022/01/19 13:26:17;;;;;;;65.28;34.28;;;5.30;99.90;;;;;;5087347;28;20042;-71
2022/01/19 13:28:43;;;;;;;72.10;37.40;;;5.20;99.90;;;;;;5105650;28;20083;-70
2022/01/19 13:31:27;;;;;;;62.97;33.08;;;6.20;99.90;;;;;;5081694;28;20400;-70
2022/01/19 13:34:00;;;;;;;73.85;37.33;;;;;;;;;;5051964;28;20046;-71
2022/01/19 13:36:35;;;;;;;64.03;32.58;;;5.50;99.90;;;;;;5081110;28;20040;-71
2022/01/19 13:39:04;;;;;;;65.28;33.10;;;5.70;99.90;;;;;;5099295;28;20035;-71
2022/01/19 13:41:30;;;;;;;67.47;35.95;;;5.70;99.90;;;;;;5071577;28;20032;-71
2022/01/19 13:44:08;;;;;;;67.70;36.85;;;5.70;99.90;;;;;;5072633;28;20032;-71
2022/01/19 13:46:38;;;;;;;65.80;35.58;;;5.60;99.90;;;;;;5085827;28;20130;-71
2022/01/19 13:49:05;;;;;;;65.40;33.10;;;5.70;99.90;;;;;;5070095;28;20519;-70
2022/01/19 13:51:32;;;;;;;61.35;31.55;;;5.80;99.90;;;;;;5065976;28;20677;-71
2022/01/19 13:54:04;;;;;;;51.45;27.00;;;5.50;99.90;;;;;;5087849;28;20036;-70
2022/01/19 13:56:33;;;;;;;59.60;29.92;;;5.90;99.90;;;;;;5087865;28;20395;-70
2022/01/19 13:59:02;;;;;;;58.13;30.15;;;5.80;99.90;;;;;;5051577;28;20089;-70
2022/01/19 14:01:38;;;;;;;62.25;33.80;;;5.50;99.90;;;;;;5083581;28;20411;-70
2022/01/19 14:04:07;;;;;;;59.38;31.55;;;5.50;99.90;;;;;;5083853;28;20157;-70
2022/01/19 14:06:45;;;;;;;64.97;33.75;;;5.60;99.90;;;;;;5086870;28;20043;-70
2022/01/19 14:09:32;;;;;;;51.22;27.67;;;5.30;99.90;;;;;;5083578;28;20135;-70
2022/01/19 14:12:01;;;;;;;58.83;30.23;;;6.00;99.90;;;;;;5085095;28;20399;-70